Portada
METAR-TAF:

METAR-TAF

Aeroports :

Gibraltar, Gibraltar

latitud: 36-09N, longitud: 005-21W, altitud: 5 m

Observació

L'informe es va fer fa 44 minuts, a les 08:20 UTC
Vent 8 kt del Oest/Nord-Oest
Temperatura 22°C
Humitat 69%
Pressió 1012 hPa
Visibilitat 10 km o més
sense núvols per sota de 1500 mi sense presència de cumulonimbus.

METAR: LXGB 060820Z 29008KT CAVOK 22/16 Q1012 NOSIG RMK BLU BLU

Hora: 11:04 (09:04 UTC)

Pronòstic

L'informe es va fer fa 1 hora i 29 minuts, a les 07:35 UTC
Pronòstic vàlid del 06 a les 09 UTC al 06 a les 18 UTC
Vent 10 kt del Oest
Visibilitat 10 km o més
Escasses núvols a una alçada de 2000 ft
Probabilitat 30% :
Temporalment
l' 06 a les 10 UTC al 06 a les 18 UTC
Vent 15 kt del Sud/Sud-Oest amb ràfegues de 25 kt

TAF: LXGB 060735Z 0609/0618 27010KT 9999 FEW020 PROB30 TEMPO 0610/0618 21015G25KT 520001

Observacions i pronòstics meteorològics de més de 4000 aeroports (METAR i TAF).

Les estacions disponibles són els punts grocs i vermells al mapa.

Posi el ratolí al punt desitjat per veure el nom de l'estació.

Feu clic per veure les observacions i els pronòstics meteorològics.

Per canviar el mapa: feu clic els botons verds amb una creu de color negre per apropar; al botó verd amb un guió per allunyar la imatge; o en les fletxes verdes per a mapes adjacents.


METAR-TAF: